createdAt,value
2022-11-16T00:00:42.897Z,7.20
2022-11-16T00:03:11.844Z,7.30
2022-11-16T00:05:56.145Z,6.45
2022-11-16T00:08:24.762Z,6.75
2022-11-16T00:10:55.281Z,6.60
2022-11-16T00:13:24.096Z,6.30
2022-11-16T00:16:13.385Z,6.95
2022-11-16T00:19:01.909Z,8.23
2022-11-16T00:21:33.991Z,8.05
2022-11-16T00:24:02.558Z,8.55
2022-11-16T00:26:30.741Z,8.18
2022-11-16T00:28:59.040Z,7.75
2022-11-16T00:31:28.536Z,7.25
2022-11-16T00:33:57.008Z,7.90
2022-11-16T00:36:25.597Z,8.63
2022-11-16T00:38:55.864Z,9.48
2022-11-16T00:41:24.199Z,9.82
2022-11-16T00:43:57.008Z,10.57
2022-11-16T00:49:34.247Z,11.43
2022-11-16T00:52:32.333Z,10.57
2022-11-16T00:55:03.536Z,9.63
2022-11-16T00:57:46.977Z,10.50
2022-11-16T01:00:22.484Z,10.05
2022-11-16T01:03:20.852Z,10.00
2022-11-16T01:06:10.412Z,8.65
2022-11-16T01:08:58.863Z,9.23
2022-11-16T01:11:44.335Z,8.52
2022-11-16T01:14:12.546Z,8.85
2022-11-16T01:16:40.549Z,9.00
2022-11-16T01:19:10.699Z,8.30
2022-11-16T01:21:38.815Z,8.32
2022-11-16T01:24:07.430Z,8.38
2022-11-16T01:27:29.335Z,7.72
2022-11-16T01:30:10.101Z,7.95
2022-11-16T01:33:02.964Z,7.68
2022-11-16T01:35:54.295Z,8.50
2022-11-16T01:38:56.155Z,9.77
2022-11-16T01:41:30.231Z,10.90
2022-11-16T01:44:36.528Z,9.82
2022-11-16T01:50:15.589Z,9.50
2022-11-16T01:53:02.432Z,10.70
2022-11-16T01:55:37.287Z,8.95
2022-11-16T01:58:07.097Z,9.80
2022-11-16T02:00:35.242Z,9.10
2022-11-16T02:03:03.198Z,9.55
2022-11-16T02:05:40.950Z,9.73
2022-11-16T02:08:44.229Z,10.55
2022-11-16T02:11:31.368Z,11.40
2022-11-16T02:14:08.039Z,12.52
2022-11-16T02:16:46.772Z,14.48
2022-11-16T02:19:45.148Z,14.57
2022-11-16T02:22:24.038Z,13.80
2022-11-16T02:25:01.971Z,13.65
2022-11-16T02:28:02.511Z,13.20
2022-11-16T02:30:32.171Z,12.43
2022-11-16T02:33:04.100Z,12.52
2022-11-16T02:35:38.224Z,11.60
2022-11-16T02:38:11.519Z,11.55
2022-11-16T02:40:46.268Z,11.38
2022-11-16T02:43:21.348Z,12.18
2022-11-16T02:46:00.118Z,11.45
2022-11-16T02:48:33.379Z,11.30
2022-11-16T02:51:07.101Z,10.85
2022-11-16T02:53:45.763Z,10.98
2022-11-16T02:56:15.669Z,10.00
2022-11-16T02:58:45.816Z,10.75
2022-11-16T03:01:22.660Z,9.57
2022-11-16T03:03:58.147Z,10.30
2022-11-16T03:06:32.921Z,10.63
2022-11-16T03:09:06.526Z,10.27
2022-11-16T03:11:56.200Z,9.27
2022-11-16T03:14:31.264Z,10.57
2022-11-16T03:17:04.183Z,10.02
2022-11-16T03:19:38.800Z,12.50
2022-11-16T03:22:12.397Z,12.27
2022-11-16T03:24:41.655Z,11.30
2022-11-16T03:27:17.612Z,13.70
2022-11-16T03:29:56.607Z,14.43
2022-11-16T03:32:31.536Z,15.52
2022-11-16T03:35:05.833Z,14.40
2022-11-16T03:37:36.825Z,14.38
2022-11-16T03:40:07.518Z,13.95
2022-11-16T03:42:36.311Z,12.23
2022-11-16T03:45:06.365Z,11.95
2022-11-16T03:47:39.080Z,11.68
2022-11-16T03:50:08.632Z,11.93
2022-11-16T03:52:37.560Z,11.93
2022-11-16T03:55:08.544Z,11.52
2022-11-16T03:57:37.367Z,11.45
2022-11-16T04:00:07.318Z,12.13
2022-11-16T04:02:39.357Z,11.95
2022-11-16T04:05:25.418Z,10.85
2022-11-16T04:08:10.933Z,9.50
2022-11-16T04:10:56.046Z,11.10
2022-11-16T04:13:47.102Z,10.98
2022-11-16T04:16:32.688Z,11.85
2022-11-16T04:19:19.945Z,11.38
2022-11-16T04:22:08.595Z,10.95
2022-11-16T04:24:40.201Z,11.43
2022-11-16T04:27:29.615Z,10.33
2022-11-16T04:29:59.017Z,11.35
2022-11-16T04:32:44.685Z,11.20
2022-11-16T04:35:42.944Z,10.43
2022-11-16T04:38:11.071Z,11.80
2022-11-16T04:40:39.124Z,10.75
2022-11-16T04:43:06.481Z,10.73
2022-11-16T04:45:52.611Z,12.45
2022-11-16T04:48:22.146Z,11.88
2022-11-16T04:50:52.822Z,12.18
2022-11-16T04:53:27.958Z,12.10
2022-11-16T04:56:00.646Z,13.00
2022-11-16T04:58:29.115Z,12.18
2022-11-16T05:00:57.150Z,12.35
2022-11-16T05:03:25.241Z,12.63
2022-11-16T05:05:54.729Z,13.93
2022-11-16T05:08:22.728Z,11.30
2022-11-16T05:10:52.156Z,12.80
2022-11-16T05:13:20.196Z,11.45
2022-11-16T05:15:48.115Z,13.55
2022-11-16T05:18:17.278Z,12.40
2022-11-16T05:21:02.660Z,11.07
2022-11-16T05:23:49.762Z,11.35
2022-11-16T05:29:54.958Z,10.45
2022-11-16T05:33:01.716Z,11.18
2022-11-16T05:36:03.110Z,11.80
2022-11-16T05:39:22.292Z,11.63
2022-11-16T05:42:01.313Z,11.10
2022-11-16T05:45:21.433Z,11.15
2022-11-16T05:47:51.307Z,10.73
2022-11-16T05:50:19.702Z,10.38
2022-11-16T05:52:47.975Z,11.40
2022-11-16T05:55:17.821Z,12.20
2022-11-16T05:57:48.568Z,11.05
2022-11-16T06:00:18.141Z,10.27
2022-11-16T06:02:46.209Z,11.60
2022-11-16T06:05:14.336Z,11.02
2022-11-16T06:07:42.283Z,10.20
2022-11-16T06:10:10.886Z,11.35
2022-11-16T06:12:40.176Z,10.98
2022-11-16T06:15:09.008Z,11.95
2022-11-16T06:17:36.902Z,11.80
2022-11-16T06:20:05.285Z,10.48
2022-11-16T06:22:33.227Z,11.35
2022-11-16T06:25:01.347Z,10.88
2022-11-16T06:27:29.289Z,11.88
2022-11-16T06:29:58.623Z,12.05
2022-11-16T06:32:26.556Z,11.80
2022-11-16T06:34:55.345Z,11.30
2022-11-16T06:37:23.210Z,11.77
2022-11-16T06:39:51.195Z,10.68
2022-11-16T06:42:19.148Z,11.82
2022-11-16T06:44:47.456Z,12.10
2022-11-16T06:47:16.958Z,10.57
2022-11-16T06:49:45.412Z,11.07
2022-11-16T06:52:13.452Z,10.80
2022-11-16T06:54:42.699Z,10.48
2022-11-16T06:57:10.594Z,11.02
2022-11-16T06:59:40.509Z,9.60
2022-11-16T07:02:08.584Z,9.73
2022-11-16T07:04:38.007Z,9.25
2022-11-16T07:07:05.958Z,9.82
2022-11-16T07:09:35.898Z,9.85
2022-11-16T07:12:04.968Z,9.85
2022-11-16T07:14:33.103Z,8.82
2022-11-16T07:17:05.205Z,10.48
2022-11-16T07:19:37.749Z,9.57
2022-11-16T07:22:10.619Z,9.40
2022-11-16T07:24:39.550Z,10.20
2022-11-16T07:27:08.732Z,10.32
2022-11-16T07:29:36.633Z,10.10
2022-11-16T07:32:04.565Z,11.15
2022-11-16T07:34:32.456Z,11.68
2022-11-16T07:37:01.736Z,12.93
2022-11-16T07:39:29.706Z,12.18
2022-11-16T07:41:57.645Z,11.93
2022-11-16T07:44:25.592Z,12.00
2022-11-16T07:46:55.394Z,11.00
2022-11-16T07:49:23.308Z,12.30
2022-11-16T07:51:51.291Z,11.68
2022-11-16T07:54:20.599Z,10.85
2022-11-16T07:56:50.573Z,12.02
2022-11-16T07:59:19.014Z,11.43
2022-11-16T08:01:48.106Z,11.13
2022-11-16T08:04:17.480Z,10.55
2022-11-16T08:06:46.815Z,10.48
2022-11-16T08:09:14.983Z,9.50
2022-11-16T08:11:44.273Z,10.10
2022-11-16T08:14:12.964Z,7.50
2022-11-16T08:16:41.929Z,8.75
2022-11-16T08:19:10.277Z,8.25
2022-11-16T08:21:38.350Z,7.90
2022-11-16T08:24:06.743Z,8.18
2022-11-16T08:26:34.680Z,7.90
2022-11-16T08:29:03.969Z,7.63
2022-11-16T08:31:31.942Z,7.22
2022-11-16T08:34:01.302Z,6.78
2022-11-16T08:36:29.580Z,7.45
2022-11-16T08:38:58.074Z,4.80
2022-11-16T08:41:26.111Z,6.35
2022-11-16T08:43:57.109Z,5.70
2022-11-16T08:46:26.464Z,4.68
2022-11-16T08:48:57.136Z,3.75
2022-11-16T08:51:25.987Z,3.63
2022-11-16T08:53:57.277Z,3.75
2022-11-16T08:56:27.066Z,3.00
2022-11-16T08:58:59.563Z,4.20
2022-11-16T09:03:58.271Z,3.25
2022-11-16T09:06:29.129Z,4.18
2022-11-16T09:09:00.184Z,4.10
2022-11-16T09:11:28.485Z,4.15
2022-11-16T09:13:57.240Z,3.28
2022-11-16T09:16:26.611Z,3.47
2022-11-16T09:18:56.617Z,2.75
2022-11-16T09:21:26.531Z,3.63
2022-11-16T09:23:56.096Z,3.15
2022-11-16T09:26:27.348Z,3.15
2022-11-16T09:29:00.515Z,2.95
2022-11-16T09:31:32.699Z,2.40
2022-11-16T09:34:02.825Z,2.45
2022-11-16T09:36:31.434Z,1.70
2022-11-16T09:39:30.713Z,1.98
2022-11-16T09:42:04.659Z,1.77
2022-11-16T09:44:42.100Z,1.55
2022-11-16T09:47:17.292Z,1.65
2022-11-16T09:49:52.176Z,1.38
2022-11-16T09:52:27.421Z,1.40
2022-11-16T09:54:57.654Z,1.85
2022-11-16T09:57:30.336Z,1.67
2022-11-16T10:00:02.318Z,1.98
2022-11-16T10:02:36.645Z,1.33
2022-11-16T10:05:14.788Z,1.35
2022-11-16T10:07:45.938Z,1.35
2022-11-16T10:10:14.741Z,1.05
2022-11-16T10:12:47.032Z,1.60
2022-11-16T10:15:35.502Z,1.25
2022-11-16T10:18:16.248Z,1.45
2022-11-16T10:20:55.052Z,1.58
2022-11-16T10:23:38.035Z,1.30
2022-11-16T10:26:15.733Z,1.90
2022-11-16T10:29:10.037Z,1.80
2022-11-16T10:31:53.724Z,1.45
2022-11-16T10:34:26.187Z,1.63
2022-11-16T10:39:27.445Z,1.27
2022-11-16T10:41:59.374Z,1.73
2022-11-16T10:44:37.323Z,1.30
2022-11-16T10:47:13.461Z,1.48
2022-11-16T10:49:50.307Z,1.48
2022-11-16T10:52:19.728Z,1.70
2022-11-16T10:54:47.636Z,1.65
2022-11-16T10:57:17.011Z,1.52
2022-11-16T10:59:47.107Z,1.15
2022-11-16T11:02:34.619Z,1.40
2022-11-16T11:05:08.938Z,1.85
2022-11-16T11:07:40.520Z,1.48
2022-11-16T11:10:31.058Z,1.40
2022-11-16T11:13:05.238Z,1.30
2022-11-16T11:15:33.732Z,1.08
2022-11-16T11:18:13.722Z,1.25
2022-11-16T11:20:45.323Z,1.35
2022-11-16T11:23:18.081Z,1.27
2022-11-16T11:25:54.695Z,1.48
2022-11-16T11:28:26.488Z,1.20
2022-11-16T11:31:01.492Z,1.27
2022-11-16T11:33:32.148Z,1.27
2022-11-16T11:36:04.078Z,1.23
2022-11-16T11:38:34.079Z,0.90
2022-11-16T11:41:05.174Z,1.48
2022-11-16T11:43:34.991Z,1.17
2022-11-16T11:46:14.050Z,1.08
2022-11-16T11:48:50.405Z,1.10
2022-11-16T11:51:23.533Z,1.13
2022-11-16T11:53:59.652Z,0.85
2022-11-16T11:56:31.779Z,1.65
2022-11-16T11:58:59.825Z,0.90
2022-11-16T12:02:09.474Z,1.10
2022-11-16T12:04:58.168Z,0.88
2022-11-16T12:07:42.691Z,1.00
2022-11-16T12:10:22.489Z,0.77
2022-11-16T12:13:03.922Z,1.10
2022-11-16T12:15:40.130Z,0.90
2022-11-16T12:18:23.677Z,1.00
2022-11-16T12:20:59.109Z,0.52
2022-11-16T12:23:47.663Z,1.42
2022-11-16T12:26:28.974Z,1.10
2022-11-16T12:29:08.000Z,0.85
2022-11-16T12:31:53.145Z,1.10
2022-11-16T12:34:33.192Z,1.27
2022-11-16T12:37:07.895Z,0.82
2022-11-16T12:39:39.728Z,0.88
2022-11-16T12:42:32.834Z,1.20
2022-11-16T12:45:25.349Z,0.82
2022-11-16T12:48:18.596Z,0.75
2022-11-16T12:50:54.469Z,0.63
2022-11-16T12:53:53.578Z,1.00
2022-11-16T12:56:31.004Z,0.93
2022-11-16T12:59:25.095Z,0.68
2022-11-16T13:02:01.348Z,0.60
2022-11-16T13:04:34.095Z,0.93
2022-11-16T13:07:10.961Z,1.05
2022-11-16T13:09:44.217Z,0.95
2022-11-16T13:12:17.116Z,1.35
2022-11-16T13:14:48.690Z,0.90
2022-11-16T13:17:21.521Z,1.20
2022-11-16T13:20:06.271Z,1.35
2022-11-16T13:22:40.599Z,1.02
2022-11-16T13:25:18.538Z,1.57
2022-11-16T13:27:52.842Z,1.10
2022-11-16T13:30:23.598Z,1.00
2022-11-16T13:33:12.181Z,1.77
2022-11-16T13:35:40.251Z,1.88
2022-11-16T13:38:12.436Z,1.80
2022-11-16T13:40:40.815Z,1.88
2022-11-16T13:43:18.144Z,1.70
2022-11-16T13:45:57.006Z,1.50
2022-11-16T13:48:28.804Z,1.50
2022-11-16T13:50:58.797Z,1.42
2022-11-16T13:56:20.200Z,1.00
2022-11-16T13:58:54.923Z,1.13
2022-11-16T14:01:24.764Z,1.15
2022-11-16T14:04:13.980Z,1.13
2022-11-16T14:07:00.376Z,1.10
2022-11-16T14:09:48.890Z,0.80
2022-11-16T14:12:57.323Z,0.98
2022-11-16T14:15:31.165Z,1.30
2022-11-16T14:18:37.057Z,0.77
2022-11-16T14:21:16.216Z,1.25
2022-11-16T14:24:16.603Z,1.13
2022-11-16T14:26:59.587Z,0.90
2022-11-16T14:29:54.568Z,1.10
2022-11-16T14:32:25.632Z,0.93
2022-11-16T14:34:56.796Z,0.82
2022-11-16T14:37:36.912Z,0.90
2022-11-16T14:40:15.162Z,0.80
2022-11-16T14:43:14.924Z,1.20
2022-11-16T14:45:40.168Z,0.98
2022-11-16T14:48:16.214Z,0.70
2022-11-16T14:50:49.476Z,1.00
2022-11-16T14:53:22.166Z,0.70
2022-11-16T14:55:50.046Z,0.82
2022-11-16T14:58:19.773Z,1.20
2022-11-16T15:00:54.893Z,1.30
2022-11-16T15:03:24.698Z,1.08
2022-11-16T15:05:57.831Z,0.90
2022-11-16T15:08:32.001Z,0.80
2022-11-16T15:11:00.873Z,1.20
2022-11-16T15:13:29.026Z,0.90
2022-11-16T15:16:10.597Z,0.88
2022-11-16T15:18:41.310Z,0.95
2022-11-16T15:21:23.320Z,0.82
2022-11-16T15:24:23.459Z,0.90
2022-11-16T15:26:42.375Z,0.90
2022-11-16T15:29:16.548Z,1.15
2022-11-16T15:31:45.658Z,1.00
2022-11-16T15:34:14.930Z,0.90
2022-11-16T15:36:44.675Z,1.50
2022-11-16T15:39:16.655Z,1.30
2022-11-16T15:41:46.073Z,1.50
2022-11-16T15:44:17.051Z,1.38
2022-11-16T15:46:50.789Z,1.17
2022-11-16T15:49:32.091Z,1.65
2022-11-16T15:52:01.903Z,1.48
2022-11-16T15:54:53.467Z,1.98
2022-11-16T15:57:23.215Z,1.83
2022-11-16T15:59:54.603Z,3.03
2022-11-16T16:02:25.148Z,3.20
2022-11-16T16:04:54.760Z,4.82
2022-11-16T16:07:41.153Z,4.55
2022-11-16T16:10:25.688Z,3.30
2022-11-16T16:12:54.862Z,2.75
2022-11-16T16:15:25.689Z,2.47
2022-11-16T16:17:54.921Z,2.30
2022-11-16T16:20:25.521Z,2.08
2022-11-16T16:22:55.385Z,2.15
2022-11-16T16:25:31.410Z,1.50
2022-11-16T16:27:59.860Z,2.05
2022-11-16T16:30:31.895Z,1.67
2022-11-16T16:33:04.308Z,1.88
2022-11-16T16:38:02.505Z,1.85
2022-11-16T16:40:30.661Z,1.67
2022-11-16T16:42:58.977Z,1.88
2022-11-16T16:45:34.929Z,1.63
2022-11-16T16:48:03.068Z,1.85
2022-11-16T16:50:31.105Z,1.67
2022-11-16T16:52:59.326Z,1.83
2022-11-16T16:55:31.698Z,1.75
2022-11-16T16:58:02.967Z,2.15
2022-11-16T17:00:30.951Z,1.45
2022-11-16T17:02:59.567Z,2.03
2022-11-16T17:05:27.602Z,2.20
2022-11-16T17:07:56.224Z,2.13
2022-11-16T17:10:24.683Z,2.28
2022-11-16T17:12:55.996Z,2.20
2022-11-16T17:15:24.445Z,1.57
2022-11-16T17:17:52.952Z,2.42
2022-11-16T17:20:20.985Z,1.60
2022-11-16T17:22:49.202Z,1.73
2022-11-16T17:25:17.264Z,2.30
2022-11-16T17:27:45.192Z,2.08
2022-11-16T17:30:15.607Z,1.80
2022-11-16T17:32:43.523Z,2.03
2022-11-16T17:35:11.864Z,1.80
2022-11-16T17:37:48.954Z,1.95
2022-11-16T17:40:17.063Z,1.42
2022-11-16T17:42:45.063Z,18.63
2022-11-16T17:45:14.436Z,2.95
2022-11-16T17:47:45.412Z,2.50
2022-11-16T17:50:14.012Z,2.10
2022-11-16T17:52:45.060Z,1.73
2022-11-16T17:55:13.074Z,2.20
2022-11-16T17:57:40.931Z,1.75
2022-11-16T18:00:10.089Z,1.85
2022-11-16T18:02:42.661Z,2.20
2022-11-16T18:07:41.211Z,1.73
2022-11-16T18:10:12.677Z,1.95
2022-11-16T18:12:42.964Z,2.70
2022-11-16T18:15:27.861Z,2.15
2022-11-16T18:17:58.415Z,2.22
2022-11-16T18:20:27.659Z,1.85
2022-11-16T18:22:55.668Z,1.42
2022-11-16T18:25:23.868Z,2.13
2022-11-16T18:27:53.746Z,1.77
2022-11-16T18:30:22.577Z,1.42
2022-11-16T18:32:53.966Z,1.48
2022-11-16T18:35:23.294Z,1.67
2022-11-16T18:37:51.319Z,1.80
2022-11-16T18:40:19.370Z,1.65
2022-11-16T18:42:47.460Z,1.38
2022-11-16T18:45:15.384Z,2.05
2022-11-16T18:47:43.356Z,1.60
2022-11-16T18:50:18.965Z,1.70
2022-11-16T18:52:49.568Z,1.67
2022-11-16T18:55:17.635Z,1.63
2022-11-16T18:57:45.578Z,1.80
2022-11-16T19:00:15.181Z,1.10
2022-11-16T19:02:43.208Z,1.40
2022-11-16T19:05:13.325Z,1.55
2022-11-16T19:07:41.341Z,1.23
2022-11-16T19:10:11.850Z,1.10
2022-11-16T19:12:39.816Z,1.35
2022-11-16T19:15:08.549Z,1.10
2022-11-16T19:17:53.116Z,1.17
2022-11-16T19:20:24.602Z,1.50
2022-11-16T19:22:55.560Z,1.80
2022-11-16T19:25:24.931Z,1.60
2022-11-16T19:27:52.941Z,1.88
2022-11-16T19:30:21.183Z,1.40
2022-11-16T19:32:49.480Z,1.75
2022-11-16T19:35:18.667Z,1.67
2022-11-16T19:37:49.320Z,2.22
2022-11-16T19:40:23.693Z,2.08
2022-11-16T19:42:55.249Z,1.30
2022-11-16T19:45:26.368Z,1.58
2022-11-16T19:47:56.613Z,1.48
2022-11-16T19:50:25.250Z,1.45
2022-11-16T19:52:53.365Z,1.52
2022-11-16T19:55:21.421Z,1.40
2022-11-16T19:57:49.674Z,1.63
2022-11-16T20:00:19.702Z,1.90
2022-11-16T20:02:47.869Z,1.67
2022-11-16T20:05:16.333Z,1.95
2022-11-16T20:07:44.670Z,2.28
2022-11-16T20:10:12.666Z,1.83
2022-11-16T20:12:41.094Z,1.95
2022-11-16T20:15:09.769Z,1.88
2022-11-16T20:17:39.178Z,1.85
2022-11-16T20:20:08.347Z,2.58
2022-11-16T20:22:36.265Z,2.22
2022-11-16T20:25:04.452Z,2.88
2022-11-16T20:27:32.434Z,2.55
2022-11-16T20:30:03.741Z,2.70
2022-11-16T20:32:34.503Z,2.47
2022-11-16T20:35:03.929Z,2.42
2022-11-16T20:37:34.821Z,2.38
2022-11-16T20:40:05.634Z,4.00
2022-11-16T20:42:33.524Z,2.22
2022-11-16T20:45:06.738Z,2.35
2022-11-16T20:47:34.759Z,2.28
2022-11-16T20:50:07.513Z,2.40
2022-11-16T20:52:39.656Z,2.10
2022-11-16T20:55:11.219Z,2.20
2022-11-16T20:57:39.301Z,2.63
2022-11-16T21:00:08.536Z,2.33
2022-11-16T21:02:36.810Z,2.38
2022-11-16T21:05:06.980Z,2.28
2022-11-16T21:07:35.368Z,3.17
2022-11-16T21:10:21.645Z,2.80
2022-11-16T21:13:08.001Z,2.88
2022-11-16T21:15:36.135Z,2.40
2022-11-16T21:18:04.100Z,2.60
2022-11-16T21:20:38.283Z,2.65
2022-11-16T21:23:06.338Z,2.83
2022-11-16T21:25:34.310Z,3.33
2022-11-16T21:28:02.268Z,2.38
2022-11-16T21:30:30.213Z,4.63
2022-11-16T21:32:58.287Z,3.05
2022-11-16T21:35:27.146Z,3.05
2022-11-16T21:37:56.508Z,2.60
2022-11-16T21:40:24.379Z,2.90
2022-11-16T21:42:52.647Z,3.25
2022-11-16T21:45:20.552Z,2.63
2022-11-16T21:47:48.514Z,3.25
2022-11-16T21:50:31.159Z,2.67
2022-11-16T21:53:01.688Z,3.15
2022-11-16T21:55:29.724Z,2.83
2022-11-16T21:57:57.974Z,3.35
2022-11-16T22:00:26.216Z,3.03
2022-11-16T22:03:03.213Z,2.83
2022-11-16T22:05:48.545Z,2.80
2022-11-16T22:08:17.998Z,2.63
2022-11-16T22:10:52.982Z,2.97
2022-11-16T22:13:21.248Z,3.05
2022-11-16T22:15:49.276Z,3.08
2022-11-16T22:18:17.229Z,2.97
2022-11-16T22:20:48.749Z,3.17
2022-11-16T22:23:22.700Z,2.78
2022-11-16T22:25:51.959Z,3.50
2022-11-16T22:28:21.212Z,2.85
2022-11-16T22:30:52.030Z,2.88
2022-11-16T22:33:20.427Z,2.97
2022-11-16T22:35:49.390Z,2.45
2022-11-16T22:38:18.811Z,2.67
2022-11-16T22:40:50.601Z,2.78
2022-11-16T22:43:18.863Z,2.20
2022-11-16T22:45:46.795Z,2.75
2022-11-16T22:48:15.162Z,2.25
2022-11-16T22:50:43.267Z,2.30
2022-11-16T22:53:11.733Z,2.60
2022-11-16T22:55:43.805Z,2.15
2022-11-16T22:58:11.697Z,2.15
2022-11-16T23:00:42.150Z,2.28
2022-11-16T23:03:10.571Z,1.88
2022-11-16T23:05:39.811Z,2.22
2022-11-16T23:08:07.782Z,2.70
2022-11-16T23:10:57.494Z,1.42
2022-11-16T23:13:44.479Z,2.20
2022-11-16T23:16:12.503Z,1.50
2022-11-16T23:18:40.479Z,2.38
2022-11-16T23:21:26.125Z,2.00
2022-11-16T23:24:11.325Z,1.95
2022-11-16T23:26:57.740Z,1.52
2022-11-16T23:29:27.152Z,1.55
2022-11-16T23:31:55.059Z,1.83
2022-11-16T23:34:23.026Z,1.92
2022-11-16T23:36:50.945Z,1.85
2022-11-16T23:39:19.092Z,1.35
2022-11-16T23:42:04.813Z,1.60
2022-11-16T23:44:34.299Z,2.00
2022-11-16T23:47:03.468Z,1.90
2022-11-16T23:49:31.505Z,1.42
2022-11-16T23:51:59.490Z,1.40
2022-11-16T23:54:27.472Z,2.35
2022-11-16T23:56:55.360Z,1.80
2022-11-16T23:59:23.731Z,2.13
